createdAt,value
2019-02-17T00:01:54.212Z,21.35
2019-02-17T00:04:23.079Z,17.52
2019-02-17T00:06:51.945Z,19.27
2019-02-17T00:09:20.825Z,18.20
2019-02-17T00:11:49.693Z,15.88
2019-02-17T00:14:18.565Z,25.37
2019-02-17T00:16:47.426Z,16.12
2019-02-17T00:19:16.294Z,15.45
2019-02-17T00:21:45.201Z,15.45
2019-02-17T00:24:14.045Z,14.33
2019-02-17T00:26:42.911Z,19.15
2019-02-17T00:29:11.783Z,18.00
2019-02-17T00:31:40.648Z,17.45
2019-02-17T00:34:09.533Z,19.07
2019-02-17T00:36:38.401Z,15.48
2019-02-17T00:39:07.275Z,22.00
2019-02-17T00:41:37.087Z,18.45
2019-02-17T00:44:05.942Z,20.68
2019-02-17T00:46:34.820Z,18.32
2019-02-17T00:49:03.702Z,17.37
2019-02-17T00:51:32.561Z,22.00
2019-02-17T00:54:01.447Z,16.48
2019-02-17T00:56:30.304Z,30.30
2019-02-17T00:59:09.347Z,16.40
2019-02-17T01:01:29.772Z,15.20
2019-02-17T01:03:58.630Z,17.12
2019-02-17T01:06:27.501Z,16.07
2019-02-17T01:08:56.344Z,16.65
2019-02-17T01:11:25.219Z,17.95
2019-02-17T01:13:54.068Z,14.35
2019-02-17T01:16:24.989Z,10.93
2019-02-17T01:18:53.520Z,14.03
2019-02-17T01:21:22.374Z,14.20
2019-02-17T01:23:51.250Z,12.33
2019-02-17T01:26:20.095Z,15.15
2019-02-17T01:28:48.960Z,15.18
2019-02-17T01:31:18.067Z,12.18
2019-02-17T01:33:46.911Z,19.00
2019-02-17T01:36:15.785Z,14.13
2019-02-17T01:38:44.641Z,13.32
2019-02-17T01:41:13.561Z,15.03
2019-02-17T01:43:42.484Z,16.05
2019-02-17T01:46:11.341Z,16.02
2019-02-17T01:48:40.200Z,17.37
2019-02-17T01:51:09.048Z,12.55
2019-02-17T01:53:37.918Z,16.27
2019-02-17T01:56:06.784Z,25.32
2019-02-17T01:58:35.666Z,20.10
2019-02-17T02:01:04.568Z,22.52
2019-02-17T02:03:33.457Z,16.00
2019-02-17T02:06:02.307Z,17.67
2019-02-17T02:08:31.165Z,22.10
2019-02-17T02:11:00.052Z,19.27
2019-02-17T02:13:28.940Z,22.85
2019-02-17T02:15:57.818Z,19.15
2019-02-17T02:18:26.689Z,14.80
2019-02-17T02:20:55.568Z,19.45
2019-02-17T02:23:24.449Z,14.75
2019-02-17T02:25:53.315Z,16.80
2019-02-17T02:28:22.179Z,18.55
2019-02-17T02:30:51.055Z,14.95
2019-02-17T02:33:19.951Z,12.25
2019-02-17T02:35:48.806Z,13.58
2019-02-17T02:38:18.094Z,12.90
2019-02-17T02:40:46.912Z,13.38
2019-02-17T02:43:15.771Z,15.58
2019-02-17T02:45:44.638Z,17.37
2019-02-17T02:48:13.519Z,14.38
2019-02-17T02:50:42.381Z,15.93
2019-02-17T02:53:11.274Z,16.57
2019-02-17T02:55:40.145Z,14.20
2019-02-17T02:58:08.982Z,21.12
2019-02-17T03:00:37.863Z,16.17
2019-02-17T03:03:06.710Z,12.73
2019-02-17T03:05:37.213Z,14.03
2019-02-17T03:08:06.081Z,15.80
2019-02-17T03:10:34.957Z,19.32
2019-02-17T03:13:03.824Z,14.07
2019-02-17T03:15:32.693Z,20.12
2019-02-17T03:18:01.571Z,16.80
2019-02-17T03:20:30.427Z,19.23
2019-02-17T03:22:59.274Z,19.90
2019-02-17T03:25:28.147Z,16.05
2019-02-17T03:27:57.016Z,15.32
2019-02-17T03:30:25.868Z,17.48
2019-02-17T03:32:54.743Z,22.15
2019-02-17T03:35:23.958Z,17.65
2019-02-17T03:37:52.864Z,19.57
2019-02-17T03:40:21.717Z,21.05
2019-02-17T03:42:51.338Z,18.10
2019-02-17T03:45:20.239Z,20.77
2019-02-17T03:47:49.105Z,16.20
2019-02-17T03:50:17.975Z,22.30
2019-02-17T03:52:46.840Z,17.87
2019-02-17T03:55:15.695Z,20.12
2019-02-17T03:57:44.617Z,17.70
2019-02-17T04:00:16.828Z,19.50
2019-02-17T04:02:44.056Z,17.35
2019-02-17T04:05:13.221Z,22.45
2019-02-17T04:07:42.105Z,20.27
2019-02-17T04:10:10.966Z,18.10
2019-02-17T04:12:39.832Z,19.35
2019-02-17T04:15:09.060Z,18.27
2019-02-17T04:17:37.938Z,18.67
2019-02-17T04:20:08.032Z,16.42
2019-02-17T04:22:36.893Z,14.00
2019-02-17T04:25:06.834Z,16.07
2019-02-17T04:27:35.689Z,14.30
2019-02-17T04:30:05.597Z,14.43
2019-02-17T04:32:36.083Z,13.98
2019-02-17T04:35:05.395Z,14.18
2019-02-17T04:37:34.605Z,14.60
2019-02-17T04:40:03.632Z,16.35
2019-02-17T04:42:32.534Z,15.03
2019-02-17T04:45:01.384Z,15.40
2019-02-17T04:47:30.933Z,13.95
2019-02-17T04:49:59.863Z,13.18
2019-02-17T04:52:28.767Z,15.13
2019-02-17T04:54:57.618Z,16.77
2019-02-17T04:57:26.501Z,20.35
2019-02-17T04:59:55.428Z,14.80
2019-02-17T05:02:24.280Z,16.60
2019-02-17T05:04:54.617Z,13.35
2019-02-17T05:07:23.481Z,14.23
2019-02-17T05:09:52.344Z,12.88
2019-02-17T05:12:21.199Z,16.07
2019-02-17T05:14:50.091Z,14.45
2019-02-17T05:17:18.944Z,14.85
2019-02-17T05:19:47.806Z,14.45
2019-02-17T05:22:16.658Z,16.85
2019-02-17T05:24:45.512Z,14.03
2019-02-17T05:27:14.385Z,16.07
2019-02-17T05:29:43.247Z,15.35
2019-02-17T05:32:12.195Z,13.98
2019-02-17T05:34:41.048Z,18.02
2019-02-17T05:37:09.909Z,13.68
2019-02-17T05:39:38.763Z,16.48
2019-02-17T05:42:07.641Z,14.70
2019-02-17T05:44:36.490Z,14.05
2019-02-17T05:47:05.347Z,15.35
2019-02-17T05:49:34.232Z,16.20
2019-02-17T05:52:03.087Z,16.62
2019-02-17T05:54:31.951Z,16.80
2019-02-17T05:57:00.801Z,15.35
2019-02-17T05:59:29.668Z,18.65
2019-02-17T06:01:58.549Z,15.32
2019-02-17T06:04:27.398Z,12.98
2019-02-17T06:06:56.277Z,15.30
2019-02-17T06:09:25.155Z,21.12
2019-02-17T06:11:54.063Z,16.95
2019-02-17T06:14:22.959Z,17.05
2019-02-17T06:16:51.819Z,15.30
2019-02-17T06:19:20.671Z,15.60
2019-02-17T06:21:49.538Z,14.43
2019-02-17T06:24:18.391Z,15.63
2019-02-17T06:26:47.239Z,15.25
2019-02-17T06:29:16.117Z,18.77
2019-02-17T06:31:45.012Z,16.70
2019-02-17T06:34:13.869Z,23.10
2019-02-17T06:36:42.758Z,19.00
2019-02-17T06:39:11.646Z,20.68
2019-02-17T06:41:40.495Z,22.45
2019-02-17T06:44:09.361Z,18.02
2019-02-17T06:46:39.879Z,17.65
2019-02-17T06:49:08.763Z,20.90
2019-02-17T06:51:37.673Z,22.10
2019-02-17T06:54:06.551Z,19.02
2019-02-17T06:56:37.051Z,15.38
2019-02-17T06:59:05.971Z,19.73
2019-02-17T07:01:34.840Z,15.70
2019-02-17T07:04:03.703Z,15.23
2019-02-17T07:06:37.248Z,19.12
2019-02-17T07:09:06.475Z,19.10
2019-02-17T07:11:35.342Z,21.75
2019-02-17T07:14:04.387Z,21.20
2019-02-17T07:16:33.251Z,23.80
2019-02-17T07:19:03.410Z,20.95
2019-02-17T07:21:32.294Z,19.37
2019-02-17T07:24:01.145Z,18.90
2019-02-17T07:26:30.024Z,23.98
2019-02-17T07:28:58.889Z,18.92
2019-02-17T07:31:34.715Z,16.73
2019-02-17T07:33:58.367Z,17.20
2019-02-17T07:36:27.289Z,16.50
2019-02-17T07:38:56.197Z,19.67
2019-02-17T07:41:25.065Z,20.88
2019-02-17T07:43:53.918Z,16.85
2019-02-17T07:46:22.804Z,19.80
2019-02-17T07:48:51.666Z,18.80
2019-02-17T07:51:20.528Z,17.80
2019-02-17T07:53:49.428Z,21.77
2019-02-17T07:56:18.294Z,20.27
2019-02-17T07:58:47.161Z,21.27
2019-02-17T08:01:16.032Z,21.27
2019-02-17T08:03:44.901Z,23.62
2019-02-17T08:06:13.797Z,28.32
2019-02-17T08:08:42.655Z,22.10
2019-02-17T08:11:11.513Z,20.85
2019-02-17T08:13:40.414Z,20.97
2019-02-17T08:16:09.272Z,19.75
2019-02-17T08:18:38.132Z,20.32
2019-02-17T08:21:07.006Z,19.87
2019-02-17T08:23:35.866Z,18.00
2019-02-17T08:26:04.747Z,22.65
2019-02-17T08:28:33.613Z,18.57
2019-02-17T08:31:02.488Z,22.27
2019-02-17T08:33:31.363Z,19.25
2019-02-17T08:36:00.257Z,17.25
2019-02-17T08:38:29.165Z,18.48
2019-02-17T08:40:58.027Z,24.00
2019-02-17T08:43:26.904Z,19.87
2019-02-17T08:45:55.760Z,21.82
2019-02-17T08:48:24.672Z,21.30
2019-02-17T08:50:53.575Z,20.30
2019-02-17T08:53:22.432Z,21.02
2019-02-17T08:55:51.378Z,20.92
2019-02-17T08:58:20.270Z,26.27
2019-02-17T09:00:49.188Z,27.62
2019-02-17T09:03:18.077Z,22.95
2019-02-17T09:05:46.942Z,22.20
2019-02-17T09:08:15.505Z,19.20
2019-02-17T09:10:44.406Z,21.75
2019-02-17T09:13:12.960Z,23.97
2019-02-17T09:15:41.521Z,23.63
2019-02-17T09:18:10.408Z,20.48
2019-02-17T09:20:38.984Z,19.00
2019-02-17T09:23:07.563Z,24.80
2019-02-17T09:25:37.670Z,21.37
2019-02-17T09:28:06.279Z,23.03
2019-02-17T09:30:34.918Z,27.83
2019-02-17T09:33:03.494Z,20.20
2019-02-17T09:35:32.078Z,22.70
2019-02-17T09:38:00.727Z,22.87
2019-02-17T09:40:29.289Z,22.90
2019-02-17T09:42:57.864Z,23.27
2019-02-17T09:45:26.432Z,19.87
2019-02-17T09:47:54.992Z,22.20
2019-02-17T09:50:23.885Z,22.75
2019-02-17T09:52:52.488Z,21.33
2019-02-17T09:55:21.071Z,22.63
2019-02-17T09:57:49.629Z,22.70
2019-02-17T10:00:18.224Z,24.33
2019-02-17T10:02:46.791Z,23.87
2019-02-17T10:05:15.625Z,22.97
2019-02-17T10:07:44.251Z,27.07
2019-02-17T10:10:17.881Z,24.97
2019-02-17T10:12:46.454Z,23.20
2019-02-17T10:15:15.052Z,25.37
2019-02-17T10:17:43.651Z,26.07
2019-02-17T10:20:18.002Z,26.20
2019-02-17T10:22:46.561Z,28.27
2019-02-17T10:25:15.157Z,25.93
2019-02-17T10:27:43.742Z,24.07
2019-02-17T10:30:16.419Z,27.97
2019-02-17T10:32:44.997Z,24.57
2019-02-17T10:35:13.608Z,23.80
2019-02-17T10:37:42.206Z,22.37
2019-02-17T10:40:18.432Z,28.27
2019-02-17T10:42:47.026Z,27.40
2019-02-17T10:45:15.599Z,33.93
2019-02-17T10:47:44.172Z,29.10
2019-02-17T10:50:13.480Z,24.97
2019-02-17T10:52:42.038Z,26.50
2019-02-17T10:55:12.467Z,22.97
2019-02-17T10:57:41.041Z,26.57
2019-02-17T11:00:13.030Z,23.70
2019-02-17T11:02:47.132Z,27.43
2019-02-17T11:05:12.312Z,23.57
2019-02-17T11:07:40.881Z,27.30
2019-02-17T11:10:11.694Z,26.27
2019-02-17T11:12:40.440Z,23.30
2019-02-17T11:15:15.184Z,28.27
2019-02-17T11:17:43.787Z,28.90
2019-02-17T11:20:12.350Z,28.90
2019-02-17T11:22:40.959Z,30.13
2019-02-17T11:25:09.565Z,35.03
2019-02-17T11:27:38.137Z,28.90
2019-02-17T11:30:12.441Z,28.00
2019-02-17T11:32:41.032Z,32.90
2019-02-17T11:35:09.602Z,26.07
2019-02-17T11:37:38.171Z,24.47
2019-02-17T11:40:09.816Z,26.57
2019-02-17T11:42:38.378Z,28.70
2019-02-17T11:45:13.541Z,31.70
2019-02-17T11:47:42.125Z,33.03
2019-02-17T11:50:10.860Z,29.70
2019-02-17T11:52:39.622Z,31.57
2019-02-17T11:55:11.329Z,27.03
2019-02-17T11:57:39.896Z,31.57
2019-02-17T12:00:14.567Z,31.60
2019-02-17T12:02:43.267Z,29.30
2019-02-17T12:05:11.981Z,31.87
2019-02-17T12:07:40.547Z,27.87
2019-02-17T12:10:11.056Z,32.07
2019-02-17T12:12:40.016Z,27.10
2019-02-17T12:15:11.447Z,24.80
2019-02-17T12:17:40.002Z,36.40
2019-02-17T12:20:24.728Z,30.33
2019-02-17T12:22:55.002Z,28.40
2019-02-17T12:25:25.221Z,29.23
2019-02-17T12:27:55.460Z,34.33
2019-02-17T12:30:24.026Z,26.40
2019-02-17T12:32:52.618Z,33.77
2019-02-17T12:35:21.191Z,34.33
2019-02-17T12:37:51.333Z,31.53
2019-02-17T12:40:19.938Z,26.60
2019-02-17T12:42:48.509Z,30.60
2019-02-17T12:45:18.381Z,28.63
2019-02-17T12:47:55.443Z,32.90
2019-02-17T12:50:17.498Z,30.10
2019-02-17T12:52:47.730Z,33.33
2019-02-17T12:55:16.539Z,31.03
2019-02-17T12:57:45.153Z,27.80
2019-02-17T13:00:16.511Z,28.30
2019-02-17T13:02:45.094Z,27.07
2019-02-17T13:05:13.723Z,28.63
2019-02-17T13:07:42.951Z,29.50
2019-02-17T13:10:12.400Z,33.73
2019-02-17T13:12:40.973Z,33.03
2019-02-17T13:15:13.726Z,31.17
2019-02-17T13:17:42.303Z,38.13
2019-02-17T13:20:15.317Z,32.67
2019-02-17T13:22:43.908Z,30.20
2019-02-17T13:25:15.001Z,31.60
2019-02-17T13:27:43.596Z,31.03
2019-02-17T13:30:20.572Z,30.83
2019-02-17T13:32:49.142Z,37.60
2019-02-17T13:35:17.740Z,35.13
2019-02-17T13:37:46.309Z,35.20
2019-02-17T13:40:15.045Z,39.93
2019-02-17T13:42:43.663Z,37.47
2019-02-17T13:45:14.732Z,35.80
2019-02-17T13:47:43.343Z,34.67
2019-02-17T13:50:15.864Z,37.80
2019-02-17T13:52:44.471Z,49.33
2019-02-17T13:55:13.116Z,36.63
2019-02-17T13:57:41.770Z,35.53
2019-02-17T14:00:15.531Z,34.53
2019-02-17T14:02:44.126Z,33.10
2019-02-17T14:05:12.705Z,34.93
2019-02-17T14:07:41.284Z,36.73
2019-02-17T14:10:11.720Z,38.13
2019-02-17T14:12:40.358Z,35.83
2019-02-17T14:15:11.797Z,34.50
2019-02-17T14:17:40.376Z,34.47
2019-02-17T14:20:10.497Z,32.43
2019-02-17T14:22:39.103Z,32.23
2019-02-17T14:25:11.016Z,36.40
2019-02-17T14:27:39.724Z,44.27
2019-02-17T14:30:13.791Z,39.13
2019-02-17T14:32:42.396Z,38.60
2019-02-17T14:35:10.952Z,38.93
2019-02-17T14:37:39.513Z,34.50
2019-02-17T14:40:13.361Z,25.67
2019-02-17T14:42:41.925Z,35.20
2019-02-17T14:45:15.016Z,32.03
2019-02-17T14:47:43.640Z,32.43
2019-02-17T14:50:13.147Z,38.53
2019-02-17T14:52:41.767Z,34.53
2019-02-17T14:55:11.668Z,40.97
2019-02-17T14:57:40.296Z,33.90
2019-02-17T15:00:18.189Z,36.10
2019-02-17T15:02:46.784Z,35.40
2019-02-17T15:05:15.352Z,34.23
2019-02-17T15:07:43.970Z,31.83
2019-02-17T15:10:14.078Z,35.13
2019-02-17T15:12:42.703Z,37.73
2019-02-17T15:15:12.801Z,28.70
2019-02-17T15:17:41.504Z,36.63
2019-02-17T15:20:12.755Z,34.83
2019-02-17T15:22:41.326Z,29.17
2019-02-17T15:25:11.648Z,33.17
2019-02-17T15:27:40.234Z,36.20
2019-02-17T15:30:11.843Z,41.17
2019-02-17T15:32:40.428Z,39.97
2019-02-17T15:35:09.182Z,32.47
2019-02-17T15:37:37.828Z,36.20
2019-02-17T15:40:11.629Z,36.07
2019-02-17T15:42:42.904Z,46.90
2019-02-17T15:45:13.273Z,37.27
2019-02-17T15:47:41.853Z,39.77
2019-02-17T15:50:14.147Z,35.33
2019-02-17T15:52:42.782Z,36.23
2019-02-17T15:55:15.104Z,34.50
2019-02-17T15:57:43.717Z,38.70
2019-02-17T16:00:20.137Z,30.93
2019-02-17T16:02:48.719Z,39.00
2019-02-17T16:05:17.298Z,36.87
2019-02-17T16:07:45.888Z,36.13
2019-02-17T16:10:16.031Z,27.60
2019-02-17T16:12:44.604Z,34.30
2019-02-17T16:15:18.486Z,34.03
2019-02-17T16:17:47.079Z,29.37
2019-02-17T16:20:15.660Z,25.27
2019-02-17T16:22:44.252Z,31.10
2019-02-17T16:25:14.558Z,27.50
2019-02-17T16:27:43.122Z,31.03
2019-02-17T16:30:14.575Z,43.27
2019-02-17T16:32:43.167Z,31.87
2019-02-17T16:35:11.924Z,30.70
2019-02-17T16:37:40.534Z,34.57
2019-02-17T16:40:11.694Z,30.00
2019-02-17T16:42:40.274Z,30.20
2019-02-17T16:45:11.521Z,28.63
2019-02-17T16:47:40.107Z,29.73
2019-02-17T16:50:15.323Z,34.77
2019-02-17T16:52:43.916Z,30.80
2019-02-17T16:55:12.668Z,33.67
2019-02-17T16:57:41.257Z,29.10
2019-02-17T17:00:19.130Z,35.07
2019-02-17T17:02:48.034Z,34.20
2019-02-17T17:05:16.684Z,30.23
2019-02-17T17:07:45.289Z,31.63
2019-02-17T17:10:14.446Z,30.70
2019-02-17T17:12:43.189Z,31.50
2019-02-17T17:15:12.325Z,31.70
2019-02-17T17:17:40.980Z,34.70
2019-02-17T17:20:17.602Z,31.13
2019-02-17T17:22:46.291Z,30.47
2019-02-17T17:25:15.305Z,26.83
2019-02-17T17:27:43.897Z,29.70
2019-02-17T17:30:16.520Z,27.47
2019-02-17T17:32:45.121Z,30.83
2019-02-17T17:35:14.056Z,29.30
2019-02-17T17:37:42.688Z,25.87
2019-02-17T17:40:13.381Z,24.30
2019-02-17T17:42:41.940Z,25.40
2019-02-17T17:45:18.573Z,27.10
2019-02-17T17:47:47.164Z,29.47
2019-02-17T17:50:17.007Z,25.47
2019-02-17T17:52:45.579Z,26.67
2019-02-17T17:55:17.635Z,28.03
2019-02-17T17:57:46.365Z,71.00
2019-02-17T18:00:20.657Z,36.43
2019-02-17T18:02:49.248Z,39.30
2019-02-17T18:05:17.817Z,32.23
2019-02-17T18:07:47.313Z,28.83
2019-02-17T18:10:16.840Z,29.10
2019-02-17T18:12:45.425Z,30.87
2019-02-17T18:15:15.591Z,23.40
2019-02-17T18:17:53.501Z,27.70
2019-02-17T18:20:14.783Z,34.33
2019-02-17T18:22:43.552Z,27.53
2019-02-17T18:25:13.947Z,44.33
2019-02-17T18:27:42.621Z,29.90
2019-02-17T18:30:16.888Z,31.70
2019-02-17T18:32:45.749Z,29.47
2019-02-17T18:35:19.637Z,27.77
2019-02-17T18:37:45.001Z,32.53
2019-02-17T18:40:20.799Z,36.13
2019-02-17T18:42:49.382Z,30.50
2019-02-17T18:45:17.981Z,36.10
2019-02-17T18:47:49.387Z,29.17
2019-02-17T18:50:19.092Z,28.87
2019-02-17T18:52:47.687Z,28.43
2019-02-17T18:55:16.311Z,28.33
2019-02-17T18:57:49.983Z,32.90
2019-02-17T19:00:23.425Z,32.73
2019-02-17T19:02:52.027Z,38.97
2019-02-17T19:05:31.140Z,33.27
2019-02-17T19:07:50.949Z,31.90
2019-02-17T19:10:19.544Z,33.90
2019-02-17T19:12:48.142Z,31.37
2019-02-17T19:15:20.694Z,31.57
2019-02-17T19:17:49.448Z,35.53
2019-02-17T19:20:32.194Z,31.40
2019-02-17T19:23:00.952Z,33.07
2019-02-17T19:25:29.557Z,36.93
2019-02-17T19:27:59.695Z,31.20
2019-02-17T19:30:28.271Z,29.10
2019-02-17T19:32:56.874Z,36.10
2019-02-17T19:35:25.475Z,26.77
2019-02-17T19:37:54.679Z,36.50
2019-02-17T19:40:23.293Z,30.57
2019-02-17T19:42:51.855Z,31.17
2019-02-17T19:45:21.670Z,30.17
2019-02-17T19:47:50.268Z,30.60
2019-02-17T19:50:18.822Z,30.53
2019-02-17T19:52:47.433Z,35.80
2019-02-17T19:55:16.035Z,32.03
2019-02-17T19:57:44.645Z,29.50
2019-02-17T20:00:17.509Z,24.73
2019-02-17T20:02:59.892Z,33.70
2019-02-17T20:05:31.323Z,32.33
2019-02-17T20:08:00.226Z,38.60
2019-02-17T20:10:29.128Z,39.42
2019-02-17T20:12:58.014Z,36.85
2019-02-17T20:15:28.563Z,38.60
2019-02-17T20:17:57.458Z,34.92
2019-02-17T20:20:27.858Z,34.67
2019-02-17T20:22:56.724Z,31.30
2019-02-17T20:25:25.630Z,35.78
2019-02-17T20:27:54.519Z,33.35
2019-02-17T20:30:23.410Z,33.50
2019-02-17T20:32:52.292Z,34.78
2019-02-17T20:35:21.239Z,30.25
2019-02-17T20:37:50.103Z,30.80
2019-02-17T20:40:19.375Z,37.53
2019-02-17T20:42:48.247Z,33.67
2019-02-17T20:45:17.179Z,29.20
2019-02-17T20:47:46.046Z,36.23
2019-02-17T20:50:18.835Z,33.18
2019-02-17T20:52:47.758Z,35.65
2019-02-17T20:55:16.635Z,33.85
2019-02-17T20:57:45.549Z,31.50
2019-02-17T21:00:23.126Z,30.32
2019-02-17T21:02:52.014Z,33.30
2019-02-17T21:05:20.909Z,36.30
2019-02-17T21:07:49.804Z,32.03
2019-02-17T21:10:18.658Z,32.70
2019-02-17T21:12:47.634Z,34.25
2019-02-17T21:15:21.271Z,29.55
2019-02-17T21:17:50.178Z,27.32
2019-02-17T21:20:19.673Z,34.85
2019-02-17T21:22:48.581Z,33.18
2019-02-17T21:25:17.445Z,32.65
2019-02-17T21:27:46.358Z,32.65
2019-02-17T21:30:18.070Z,29.72
2019-02-17T21:32:47.513Z,38.67
2019-02-17T21:35:17.242Z,48.13
2019-02-17T21:37:46.221Z,48.75
2019-02-17T21:40:15.450Z,42.15
2019-02-17T21:42:44.360Z,48.60
2019-02-17T21:45:15.932Z,46.60
2019-02-17T21:47:44.848Z,44.90
2019-02-17T21:50:16.458Z,38.78
2019-02-17T21:52:45.356Z,38.33
2019-02-17T21:55:16.927Z,33.38
2019-02-17T21:57:45.803Z,33.65
2019-02-17T22:00:19.915Z,39.10
2019-02-17T22:02:49.144Z,42.73
2019-02-17T22:05:19.953Z,30.77
2019-02-17T22:07:48.851Z,34.83
2019-02-17T22:10:18.864Z,37.50
2019-02-17T22:12:47.741Z,33.05
2019-02-17T22:15:21.254Z,31.60
2019-02-17T22:17:50.137Z,30.62
2019-02-17T22:20:19.009Z,32.48
2019-02-17T22:22:47.884Z,35.10
2019-02-17T22:25:16.907Z,33.48
2019-02-17T22:27:46.601Z,30.57
2019-02-17T22:30:15.971Z,30.68
2019-02-17T22:32:45.031Z,38.78
2019-02-17T22:35:13.971Z,34.23
2019-02-17T22:37:42.897Z,30.35
2019-02-17T22:40:14.824Z,31.68
2019-02-17T22:42:43.659Z,27.65
2019-02-17T22:45:13.173Z,34.48
2019-02-17T22:47:42.098Z,31.33
2019-02-17T22:50:12.697Z,28.27
2019-02-17T22:52:41.593Z,28.50
2019-02-17T22:55:11.506Z,32.48
2019-02-17T22:57:40.343Z,33.50
2019-02-17T23:00:31.341Z,30.00
2019-02-17T23:03:00.192Z,31.30
2019-02-17T23:05:29.071Z,29.65
2019-02-17T23:07:57.952Z,30.02
2019-02-17T23:10:26.831Z,32.85
2019-02-17T23:12:55.731Z,30.50
2019-02-17T23:15:24.637Z,31.15
2019-02-17T23:17:53.512Z,32.42
2019-02-17T23:20:22.401Z,26.60
2019-02-17T23:22:51.293Z,28.35
2019-02-17T23:25:20.216Z,31.65
2019-02-17T23:27:49.073Z,30.72
2019-02-17T23:30:17.950Z,30.72
2019-02-17T23:32:46.809Z,33.18
2019-02-17T23:35:15.694Z,27.27
2019-02-17T23:37:44.572Z,32.60
2019-02-17T23:40:13.440Z,31.07
2019-02-17T23:42:42.325Z,27.05
2019-02-17T23:45:14.789Z,27.20
2019-02-17T23:47:43.643Z,33.02
2019-02-17T23:50:13.749Z,36.45
2019-02-17T23:52:42.881Z,32.03
2019-02-17T23:55:12.685Z,31.37
2019-02-17T23:57:41.533Z,30.25
